sensor_id;sensor_type;location;lat;lon;timestamp;P1;durP1;ratioP1;P2;durP2;ratioP2
7031;SDS011;3557;48.880;8.328;2022-11-20T00:00:40;8.47;;;5.60;;
7031;SDS011;3557;48.880;8.328;2022-11-20T00:03:07;7.23;;;5.07;;
7031;SDS011;3557;48.880;8.328;2022-11-20T00:05:36;7.33;;;5.43;;
7031;SDS011;3557;48.880;8.328;2022-11-20T00:08:03;7.97;;;5.53;;
7031;SDS011;3557;48.880;8.328;2022-11-20T00:10:30;8.50;;;5.00;;
7031;SDS011;3557;48.880;8.328;2022-11-20T00:12:58;6.13;;;4.53;;
7031;SDS011;3557;48.880;8.328;2022-11-20T00:15:25;7.67;;;4.80;;
7031;SDS011;3557;48.880;8.328;2022-11-20T00:17:52;5.93;;;4.17;;
7031;SDS011;3557;48.880;8.328;2022-11-20T00:20:19;8.33;;;4.40;;
7031;SDS011;3557;48.880;8.328;2022-11-20T00:22:48;5.20;;;4.47;;
7031;SDS011;3557;48.880;8.328;2022-11-20T00:25:16;6.83;;;4.20;;
7031;SDS011;3557;48.880;8.328;2022-11-20T00:27:43;6.73;;;4.17;;
7031;SDS011;3557;48.880;8.328;2022-11-20T00:30:10;5.23;;;4.00;;
7031;SDS011;3557;48.880;8.328;2022-11-20T00:32:37;5.40;;;4.03;;
7031;SDS011;3557;48.880;8.328;2022-11-20T00:35:05;4.83;;;4.10;;
7031;SDS011;3557;48.880;8.328;2022-11-20T00:37:32;4.87;;;3.97;;
7031;SDS011;3557;48.880;8.328;2022-11-20T00:40:01;5.67;;;4.20;;
7031;SDS011;3557;48.880;8.328;2022-11-20T00:42:28;8.00;;;4.03;;
7031;SDS011;3557;48.880;8.328;2022-11-20T00:44:57;7.67;;;4.07;;
7031;SDS011;3557;48.880;8.328;2022-11-20T00:47:24;6.77;;;4.33;;
7031;SDS011;3557;48.880;8.328;2022-11-20T00:49:51;6.47;;;3.83;;
7031;SDS011;3557;48.880;8.328;2022-11-20T00:52:18;5.40;;;4.10;;
7031;SDS011;3557;48.880;8.328;2022-11-20T00:54:45;7.60;;;4.07;;
7031;SDS011;3557;48.880;8.328;2022-11-20T00:57:14;5.03;;;4.27;;
7031;SDS011;3557;48.880;8.328;2022-11-20T00:59:41;4.80;;;3.87;;
7031;SDS011;3557;48.880;8.328;2022-11-20T01:02:08;5.00;;;3.67;;
7031;SDS011;3557;48.880;8.328;2022-11-20T01:04:35;6.80;;;3.80;;
7031;SDS011;3557;48.880;8.328;2022-11-20T01:07:02;6.27;;;3.83;;
7031;SDS011;3557;48.880;8.328;2022-11-20T01:09:29;4.93;;;4.00;;
7031;SDS011;3557;48.880;8.328;2022-11-20T01:11:56;6.37;;;3.93;;
7031;SDS011;3557;48.880;8.328;2022-11-20T01:14:25;5.37;;;3.67;;
7031;SDS011;3557;48.880;8.328;2022-11-20T01:16:52;4.33;;;3.73;;
7031;SDS011;3557;48.880;8.328;2022-11-20T01:19:21;8.17;;;4.13;;
7031;SDS011;3557;48.880;8.328;2022-11-20T01:21:50;5.17;;;3.80;;
7031;SDS011;3557;48.880;8.328;2022-11-20T01:24:19;5.20;;;3.97;;
7031;SDS011;3557;48.880;8.328;2022-11-20T01:26:48;4.30;;;3.20;;
7031;SDS011;3557;48.880;8.328;2022-11-20T01:29:17;7.50;;;3.70;;
7031;SDS011;3557;48.880;8.328;2022-11-20T01:31:48;6.03;;;3.90;;
7031;SDS011;3557;48.880;8.328;2022-11-20T01:34:18;6.00;;;3.47;;
7031;SDS011;3557;48.880;8.328;2022-11-20T01:36:47;5.53;;;3.37;;
7031;SDS011;3557;48.880;8.328;2022-11-20T01:39:15;5.83;;;3.73;;
7031;SDS011;3557;48.880;8.328;2022-11-20T01:41:44;3.73;;;3.20;;
7031;SDS011;3557;48.880;8.328;2022-11-20T01:47:21;5.30;;;3.57;;
7031;SDS011;3557;48.880;8.328;2022-11-20T01:49:54;3.53;;;3.10;;
7031;SDS011;3557;48.880;8.328;2022-11-20T01:52:27;4.20;;;3.00;;
7031;SDS011;3557;48.880;8.328;2022-11-20T01:55:02;4.57;;;3.10;;
7031;SDS011;3557;48.880;8.328;2022-11-20T01:57:34;4.07;;;3.13;;
7031;SDS011;3557;48.880;8.328;2022-11-20T02:00:04;3.17;;;2.70;;
7031;SDS011;3557;48.880;8.328;2022-11-20T02:02:44;3.17;;;2.60;;
7031;SDS011;3557;48.880;8.328;2022-11-20T02:05:16;3.63;;;2.87;;
7031;SDS011;3557;48.880;8.328;2022-11-20T02:07:49;5.47;;;2.83;;
7031;SDS011;3557;48.880;8.328;2022-11-20T02:10:16;3.03;;;2.70;;
7031;SDS011;3557;48.880;8.328;2022-11-20T02:12:44;3.37;;;2.70;;
7031;SDS011;3557;48.880;8.328;2022-11-20T02:15:28;4.53;;;2.90;;
7031;SDS011;3557;48.880;8.328;2022-11-20T02:17:57;3.47;;;2.67;;
7031;SDS011;3557;48.880;8.328;2022-11-20T02:20:24;4.43;;;2.90;;
7031;SDS011;3557;48.880;8.328;2022-11-20T02:22:53;4.80;;;2.60;;
7031;SDS011;3557;48.880;8.328;2022-11-20T02:25:25;3.27;;;2.60;;
7031;SDS011;3557;48.880;8.328;2022-11-20T02:27:54;2.60;;;2.40;;
7031;SDS011;3557;48.880;8.328;2022-11-20T02:30:21;4.80;;;2.43;;
7031;SDS011;3557;48.880;8.328;2022-11-20T02:32:48;3.10;;;2.70;;
7031;SDS011;3557;48.880;8.328;2022-11-20T02:38:11;3.87;;;2.33;;
7031;SDS011;3557;48.880;8.328;2022-11-20T02:40:42;3.97;;;2.60;;
7031;SDS011;3557;48.880;8.328;2022-11-20T02:43:09;3.13;;;2.77;;
7031;SDS011;3557;48.880;8.328;2022-11-20T02:45:37;3.47;;;2.33;;
7031;SDS011;3557;48.880;8.328;2022-11-20T02:48:05;3.43;;;2.53;;
7031;SDS011;3557;48.880;8.328;2022-11-20T02:50:35;4.57;;;2.40;;
7031;SDS011;3557;48.880;8.328;2022-11-20T02:53:04;5.97;;;2.50;;
7031;SDS011;3557;48.880;8.328;2022-11-20T02:55:32;5.20;;;2.90;;
7031;SDS011;3557;48.880;8.328;2022-11-20T02:58:00;4.57;;;2.50;;
7031;SDS011;3557;48.880;8.328;2022-11-20T03:00:27;5.93;;;2.40;;
7031;SDS011;3557;48.880;8.328;2022-11-20T03:02:54;4.40;;;2.40;;
7031;SDS011;3557;48.880;8.328;2022-11-20T03:05:21;5.10;;;2.40;;
7031;SDS011;3557;48.880;8.328;2022-11-20T03:07:49;3.50;;;2.63;;
7031;SDS011;3557;48.880;8.328;2022-11-20T03:10:16;2.83;;;2.37;;
7031;SDS011;3557;48.880;8.328;2022-11-20T03:12:43;3.53;;;2.30;;
7031;SDS011;3557;48.880;8.328;2022-11-20T03:15:12;2.73;;;2.40;;
7031;SDS011;3557;48.880;8.328;2022-11-20T03:17:39;5.13;;;2.83;;
7031;SDS011;3557;48.880;8.328;2022-11-20T03:20:06;8.03;;;2.57;;
7031;SDS011;3557;48.880;8.328;2022-11-20T03:22:35;3.60;;;2.63;;
7031;SDS011;3557;48.880;8.328;2022-11-20T03:25:02;3.43;;;2.37;;
7031;SDS011;3557;48.880;8.328;2022-11-20T03:27:31;3.57;;;2.67;;
7031;SDS011;3557;48.880;8.328;2022-11-20T03:30:00;3.07;;;2.60;;
7031;SDS011;3557;48.880;8.328;2022-11-20T03:32:28;2.97;;;2.67;;
7031;SDS011;3557;48.880;8.328;2022-11-20T03:34:55;3.67;;;2.43;;
7031;SDS011;3557;48.880;8.328;2022-11-20T03:37:23;5.47;;;2.77;;
7031;SDS011;3557;48.880;8.328;2022-11-20T03:39:50;4.13;;;2.33;;
7031;SDS011;3557;48.880;8.328;2022-11-20T03:42:17;4.53;;;2.40;;
7031;SDS011;3557;48.880;8.328;2022-11-20T03:45:02;3.23;;;2.70;;
7031;SDS011;3557;48.880;8.328;2022-11-20T03:47:31;3.10;;;2.80;;
7031;SDS011;3557;48.880;8.328;2022-11-20T03:49:58;2.73;;;2.47;;
7031;SDS011;3557;48.880;8.328;2022-11-20T03:52:25;3.73;;;2.70;;
7031;SDS011;3557;48.880;8.328;2022-11-20T03:54:52;5.13;;;3.20;;
7031;SDS011;3557;48.880;8.328;2022-11-20T03:57:20;3.60;;;2.67;;
7031;SDS011;3557;48.880;8.328;2022-11-20T03:59:47;3.23;;;2.70;;
7031;SDS011;3557;48.880;8.328;2022-11-20T04:02:14;3.37;;;2.90;;
7031;SDS011;3557;48.880;8.328;2022-11-20T04:04:42;3.80;;;2.80;;
7031;SDS011;3557;48.880;8.328;2022-11-20T04:07:10;3.13;;;2.67;;
7031;SDS011;3557;48.880;8.328;2022-11-20T04:09:37;3.83;;;3.10;;
7031;SDS011;3557;48.880;8.328;2022-11-20T04:12:04;3.83;;;2.77;;
7031;SDS011;3557;48.880;8.328;2022-11-20T04:14:31;4.03;;;2.90;;
7031;SDS011;3557;48.880;8.328;2022-11-20T04:16:58;3.27;;;2.70;;
7031;SDS011;3557;48.880;8.328;2022-11-20T04:19:25;4.97;;;2.80;;
7031;SDS011;3557;48.880;8.328;2022-11-20T04:21:54;3.80;;;2.93;;
7031;SDS011;3557;48.880;8.328;2022-11-20T04:24:21;6.60;;;3.00;;
7031;SDS011;3557;48.880;8.328;2022-11-20T04:26:48;4.57;;;2.87;;
7031;SDS011;3557;48.880;8.328;2022-11-20T04:29:15;4.47;;;2.57;;
7031;SDS011;3557;48.880;8.328;2022-11-20T04:31:42;3.10;;;2.50;;
7031;SDS011;3557;48.880;8.328;2022-11-20T04:34:10;2.90;;;2.60;;
7031;SDS011;3557;48.880;8.328;2022-11-20T04:36:38;6.00;;;2.73;;
7031;SDS011;3557;48.880;8.328;2022-11-20T04:39:06;3.77;;;2.60;;
7031;SDS011;3557;48.880;8.328;2022-11-20T04:41:34;3.10;;;2.80;;
7031;SDS011;3557;48.880;8.328;2022-11-20T04:44:02;4.00;;;2.60;;
7031;SDS011;3557;48.880;8.328;2022-11-20T04:46:33;3.07;;;2.50;;
7031;SDS011;3557;48.880;8.328;2022-11-20T04:49:02;2.90;;;2.20;;
7031;SDS011;3557;48.880;8.328;2022-11-20T04:51:30;3.77;;;2.60;;
7031;SDS011;3557;48.880;8.328;2022-11-20T04:53:57;2.90;;;2.60;;
7031;SDS011;3557;48.880;8.328;2022-11-20T04:56:25;6.63;;;2.53;;
7031;SDS011;3557;48.880;8.328;2022-11-20T04:58:53;3.00;;;2.30;;
7031;SDS011;3557;48.880;8.328;2022-11-20T05:01:20;2.63;;;2.43;;
7031;SDS011;3557;48.880;8.328;2022-11-20T05:03:49;4.23;;;2.37;;
7031;SDS011;3557;48.880;8.328;2022-11-20T05:06:18;2.47;;;2.10;;
7031;SDS011;3557;48.880;8.328;2022-11-20T05:08:46;3.40;;;2.10;;
7031;SDS011;3557;48.880;8.328;2022-11-20T05:11:14;2.40;;;2.07;;
7031;SDS011;3557;48.880;8.328;2022-11-20T05:13:44;4.63;;;2.27;;
7031;SDS011;3557;48.880;8.328;2022-11-20T05:16:13;3.60;;;2.17;;
7031;SDS011;3557;48.880;8.328;2022-11-20T05:18:42;2.70;;;2.10;;
7031;SDS011;3557;48.880;8.328;2022-11-20T05:21:10;3.33;;;2.00;;
7031;SDS011;3557;48.880;8.328;2022-11-20T05:23:38;2.30;;;1.93;;
7031;SDS011;3557;48.880;8.328;2022-11-20T05:26:06;3.27;;;1.87;;
7031;SDS011;3557;48.880;8.328;2022-11-20T05:28:34;2.90;;;1.90;;
7031;SDS011;3557;48.880;8.328;2022-11-20T05:31:06;2.93;;;1.70;;
7031;SDS011;3557;48.880;8.328;2022-11-20T05:33:35;2.80;;;1.70;;
7031;SDS011;3557;48.880;8.328;2022-11-20T05:36:03;2.23;;;1.80;;
7031;SDS011;3557;48.880;8.328;2022-11-20T05:38:31;4.90;;;1.80;;
7031;SDS011;3557;48.880;8.328;2022-11-20T05:41:05;3.23;;;1.70;;
7031;SDS011;3557;48.880;8.328;2022-11-20T05:43:33;2.00;;;1.80;;
7031;SDS011;3557;48.880;8.328;2022-11-20T05:46:01;2.03;;;1.70;;
7031;SDS011;3557;48.880;8.328;2022-11-20T05:48:30;2.43;;;1.70;;
7031;SDS011;3557;48.880;8.328;2022-11-20T05:50:58;3.80;;;1.80;;
7031;SDS011;3557;48.880;8.328;2022-11-20T05:53:25;3.90;;;1.97;;
7031;SDS011;3557;48.880;8.328;2022-11-20T05:55:56;2.73;;;1.87;;
7031;SDS011;3557;48.880;8.328;2022-11-20T05:58:24;3.67;;;1.90;;
7031;SDS011;3557;48.880;8.328;2022-11-20T06:00:52;3.53;;;1.70;;
7031;SDS011;3557;48.880;8.328;2022-11-20T06:03:19;2.03;;;1.70;;
7031;SDS011;3557;48.880;8.328;2022-11-20T06:05:48;1.90;;;1.40;;
7031;SDS011;3557;48.880;8.328;2022-11-20T06:08:15;3.97;;;1.93;;
7031;SDS011;3557;48.880;8.328;2022-11-20T06:10:42;2.00;;;1.80;;
7031;SDS011;3557;48.880;8.328;2022-11-20T06:13:09;2.33;;;1.60;;
7031;SDS011;3557;48.880;8.328;2022-11-20T06:15:36;2.07;;;1.87;;
7031;SDS011;3557;48.880;8.328;2022-11-20T06:18:03;2.87;;;2.00;;
7031;SDS011;3557;48.880;8.328;2022-11-20T06:20:31;1.80;;;1.50;;
7031;SDS011;3557;48.880;8.328;2022-11-20T06:22:59;2.13;;;1.80;;
7031;SDS011;3557;48.880;8.328;2022-11-20T06:25:26;3.73;;;2.00;;
7031;SDS011;3557;48.880;8.328;2022-11-20T06:27:53;3.60;;;1.77;;
7031;SDS011;3557;48.880;8.328;2022-11-20T06:30:20;3.67;;;1.90;;
7031;SDS011;3557;48.880;8.328;2022-11-20T06:32:47;2.03;;;1.60;;
7031;SDS011;3557;48.880;8.328;2022-11-20T06:35:14;1.77;;;1.63;;
7031;SDS011;3557;48.880;8.328;2022-11-20T06:37:42;1.90;;;1.60;;
7031;SDS011;3557;48.880;8.328;2022-11-20T06:40:11;2.70;;;1.57;;
7031;SDS011;3557;48.880;8.328;2022-11-20T06:42:39;2.87;;;1.80;;
7031;SDS011;3557;48.880;8.328;2022-11-20T06:45:06;2.73;;;1.80;;
7031;SDS011;3557;48.880;8.328;2022-11-20T06:47:34;1.80;;;1.60;;
7031;SDS011;3557;48.880;8.328;2022-11-20T06:50:01;1.60;;;1.50;;
7031;SDS011;3557;48.880;8.328;2022-11-20T06:52:29;2.60;;;1.60;;
7031;SDS011;3557;48.880;8.328;2022-11-20T06:54:56;1.80;;;1.50;;
7031;SDS011;3557;48.880;8.328;2022-11-20T06:57:24;1.73;;;1.60;;
7031;SDS011;3557;48.880;8.328;2022-11-20T06:59:51;1.90;;;1.63;;
7031;SDS011;3557;48.880;8.328;2022-11-20T07:02:18;1.50;;;1.40;;
7031;SDS011;3557;48.880;8.328;2022-11-20T07:04:45;2.07;;;1.60;;
7031;SDS011;3557;48.880;8.328;2022-11-20T07:07:12;2.43;;;1.80;;
7031;SDS011;3557;48.880;8.328;2022-11-20T07:09:39;1.70;;;1.50;;
7031;SDS011;3557;48.880;8.328;2022-11-20T07:12:07;2.30;;;1.50;;
7031;SDS011;3557;48.880;8.328;2022-11-20T07:14:36;1.90;;;1.50;;
7031;SDS011;3557;48.880;8.328;2022-11-20T07:17:03;2.63;;;1.50;;
7031;SDS011;3557;48.880;8.328;2022-11-20T07:19:30;1.87;;;1.40;;
7031;SDS011;3557;48.880;8.328;2022-11-20T07:21:57;2.10;;;1.90;;
7031;SDS011;3557;48.880;8.328;2022-11-20T07:24:24;3.70;;;2.40;;
7031;SDS011;3557;48.880;8.328;2022-11-20T07:26:52;1.97;;;1.80;;
7031;SDS011;3557;48.880;8.328;2022-11-20T07:29:19;2.00;;;1.67;;
7031;SDS011;3557;48.880;8.328;2022-11-20T07:31:47;3.53;;;1.60;;
7031;SDS011;3557;48.880;8.328;2022-11-20T07:34:15;1.90;;;1.60;;
7031;SDS011;3557;48.880;8.328;2022-11-20T07:36:41;3.43;;;1.70;;
7031;SDS011;3557;48.880;8.328;2022-11-20T07:39:08;2.17;;;1.60;;
7031;SDS011;3557;48.880;8.328;2022-11-20T07:41:36;2.10;;;1.70;;
7031;SDS011;3557;48.880;8.328;2022-11-20T07:44:03;2.60;;;1.70;;
7031;SDS011;3557;48.880;8.328;2022-11-20T07:46:30;2.23;;;1.80;;
7031;SDS011;3557;48.880;8.328;2022-11-20T07:48:59;1.97;;;1.70;;
7031;SDS011;3557;48.880;8.328;2022-11-20T07:51:26;2.47;;;1.73;;
7031;SDS011;3557;48.880;8.328;2022-11-20T07:53:54;1.80;;;1.60;;
7031;SDS011;3557;48.880;8.328;2022-11-20T07:56:21;1.93;;;1.63;;
7031;SDS011;3557;48.880;8.328;2022-11-20T07:58:48;2.37;;;1.50;;
7031;SDS011;3557;48.880;8.328;2022-11-20T15:23:38;4.18;;;1.80;;
7031;SDS011;3557;48.880;8.328;2022-11-20T15:26:06;3.80;;;2.30;;
7031;SDS011;3557;48.880;8.328;2022-11-20T15:28:34;1.42;;;1.27;;
7031;SDS011;3557;48.880;8.328;2022-11-20T15:31:05;1.40;;;1.20;;
7031;SDS011;3557;48.880;8.328;2022-11-20T15:33:33;3.20;;;1.30;;
7031;SDS011;3557;48.880;8.328;2022-11-20T15:36:00;1.45;;;1.10;;
7031;SDS011;3557;48.880;8.328;2022-11-20T15:38:28;2.33;;;1.30;;
7031;SDS011;3557;48.880;8.328;2022-11-20T15:40:56;2.25;;;1.35;;
7031;SDS011;3557;48.880;8.328;2022-11-20T15:43:24;3.05;;;1.30;;
7031;SDS011;3557;48.880;8.328;2022-11-20T15:45:51;2.40;;;1.40;;
7031;SDS011;3557;48.880;8.328;2022-11-20T15:48:23;1.92;;;1.52;;
7031;SDS011;3557;48.880;8.328;2022-11-20T15:50:56;2.67;;;1.83;;
7031;SDS011;3557;48.880;8.328;2022-11-20T15:53:26;3.17;;;1.30;;
7031;SDS011;3557;48.880;8.328;2022-11-20T15:55:53;1.50;;;1.40;;
7031;SDS011;3557;48.880;8.328;2022-11-20T15:58:22;1.70;;;1.25;;
7031;SDS011;3557;48.880;8.328;2022-11-20T16:00:49;4.47;;;2.00;;
7031;SDS011;3557;48.880;8.328;2022-11-20T16:03:17;2.80;;;1.60;;
7031;SDS011;3557;48.880;8.328;2022-11-20T16:05:44;3.17;;;1.85;;
7031;SDS011;3557;48.880;8.328;2022-11-20T16:08:11;2.40;;;1.65;;
7031;SDS011;3557;48.880;8.328;2022-11-20T16:10:39;1.90;;;1.45;;
7031;SDS011;3557;48.880;8.328;2022-11-20T16:13:11;1.50;;;1.27;;
7031;SDS011;3557;48.880;8.328;2022-11-20T16:15:59;1.15;;;1.00;;
7031;SDS011;3557;48.880;8.328;2022-11-20T16:18:31;1.60;;;1.30;;
7031;SDS011;3557;48.880;8.328;2022-11-20T16:20:59;1.40;;;1.30;;
7031;SDS011;3557;48.880;8.328;2022-11-20T16:23:26;1.52;;;1.30;;
7031;SDS011;3557;48.880;8.328;2022-11-20T16:25:54;3.45;;;1.60;;
7031;SDS011;3557;48.880;8.328;2022-11-20T16:28:21;3.00;;;1.40;;
7031;SDS011;3557;48.880;8.328;2022-11-20T16:30:48;3.03;;;1.30;;
7031;SDS011;3557;48.880;8.328;2022-11-20T16:33:17;2.13;;;1.40;;
7031;SDS011;3557;48.880;8.328;2022-11-20T16:35:44;2.22;;;1.75;;
7031;SDS011;3557;48.880;8.328;2022-11-20T16:38:11;4.57;;;1.90;;
7031;SDS011;3557;48.880;8.328;2022-11-20T16:40:38;3.13;;;2.00;;
7031;SDS011;3557;48.880;8.328;2022-11-20T16:43:07;2.60;;;1.67;;
7031;SDS011;3557;48.880;8.328;2022-11-20T16:45:39;2.57;;;1.70;;
7031;SDS011;3557;48.880;8.328;2022-11-20T16:48:10;2.37;;;1.77;;
7031;SDS011;3557;48.880;8.328;2022-11-20T16:50:48;2.67;;;1.87;;
7031;SDS011;3557;48.880;8.328;2022-11-20T16:53:16;4.57;;;2.60;;
7031;SDS011;3557;48.880;8.328;2022-11-20T16:55:45;5.50;;;2.93;;
7031;SDS011;3557;48.880;8.328;2022-11-20T16:58:13;3.15;;;1.90;;
7031;SDS011;3557;48.880;8.328;2022-11-20T17:00:40;4.63;;;2.30;;
7031;SDS011;3557;48.880;8.328;2022-11-20T17:03:08;4.43;;;2.73;;
7031;SDS011;3557;48.880;8.328;2022-11-20T17:05:38;5.20;;;3.03;;
7031;SDS011;3557;48.880;8.328;2022-11-20T17:08:06;4.93;;;3.00;;
7031;SDS011;3557;48.880;8.328;2022-11-20T17:10:36;9.30;;;4.17;;
7031;SDS011;3557;48.880;8.328;2022-11-20T17:13:06;3.80;;;2.50;;
7031;SDS011;3557;48.880;8.328;2022-11-20T17:15:36;7.72;;;3.90;;
7031;SDS011;3557;48.880;8.328;2022-11-20T17:18:03;5.17;;;2.47;;
7031;SDS011;3557;48.880;8.328;2022-11-20T17:20:31;6.83;;;2.43;;
7031;SDS011;3557;48.880;8.328;2022-11-20T17:22:59;6.40;;;1.80;;
7031;SDS011;3557;48.880;8.328;2022-11-20T17:25:27;4.40;;;1.77;;
7031;SDS011;3557;48.880;8.328;2022-11-20T17:27:58;3.40;;;2.00;;
7031;SDS011;3557;48.880;8.328;2022-11-20T17:30:26;3.03;;;1.57;;
7031;SDS011;3557;48.880;8.328;2022-11-20T17:32:53;1.80;;;1.53;;
7031;SDS011;3557;48.880;8.328;2022-11-20T17:35:22;1.43;;;1.20;;
7031;SDS011;3557;48.880;8.328;2022-11-20T17:37:49;5.00;;;1.93;;
7031;SDS011;3557;48.880;8.328;2022-11-20T17:40:17;2.93;;;1.80;;
7031;SDS011;3557;48.880;8.328;2022-11-20T17:42:47;1.90;;;1.50;;
7031;SDS011;3557;48.880;8.328;2022-11-20T17:45:14;3.33;;;1.47;;
7031;SDS011;3557;48.880;8.328;2022-11-20T17:47:43;3.40;;;2.00;;
7031;SDS011;3557;48.880;8.328;2022-11-20T17:50:11;5.97;;;2.30;;
7031;SDS011;3557;48.880;8.328;2022-11-20T17:52:41;2.93;;;1.90;;
7031;SDS011;3557;48.880;8.328;2022-11-20T17:55:12;3.60;;;1.30;;
7031;SDS011;3557;48.880;8.328;2022-11-20T17:57:40;2.43;;;1.70;;
7031;SDS011;3557;48.880;8.328;2022-11-20T18:00:43;1.30;;;1.20;;
7031;SDS011;3557;48.880;8.328;2022-11-20T18:03:13;1.73;;;1.40;;
7031;SDS011;3557;48.880;8.328;2022-11-20T18:05:41;1.63;;;1.50;;
7031;SDS011;3557;48.880;8.328;2022-11-20T18:08:08;1.97;;;1.50;;
7031;SDS011;3557;48.880;8.328;2022-11-20T18:10:36;1.70;;;1.40;;
7031;SDS011;3557;48.880;8.328;2022-11-20T18:13:03;2.80;;;1.93;;
7031;SDS011;3557;48.880;8.328;2022-11-20T18:15:31;2.77;;;1.70;;
7031;SDS011;3557;48.880;8.328;2022-11-20T18:18:00;2.20;;;1.60;;
7031;SDS011;3557;48.880;8.328;2022-11-20T18:20:27;4.10;;;2.30;;
7031;SDS011;3557;48.880;8.328;2022-11-20T18:22:55;3.43;;;1.50;;
7031;SDS011;3557;48.880;8.328;2022-11-20T18:25:24;2.30;;;1.90;;
7031;SDS011;3557;48.880;8.328;2022-11-20T18:27:51;8.98;;;3.95;;
7031;SDS011;3557;48.880;8.328;2022-11-20T18:30:19;9.83;;;4.03;;
7031;SDS011;3557;48.880;8.328;2022-11-20T18:32:46;9.77;;;4.53;;
7031;SDS011;3557;48.880;8.328;2022-11-20T18:35:16;4.07;;;1.93;;
7031;SDS011;3557;48.880;8.328;2022-11-20T18:37:43;3.43;;;1.90;;
7031;SDS011;3557;48.880;8.328;2022-11-20T18:40:12;2.95;;;1.65;;
7031;SDS011;3557;48.880;8.328;2022-11-20T18:42:39;5.77;;;3.13;;
7031;SDS011;3557;48.880;8.328;2022-11-20T18:45:24;1.90;;;1.70;;
7031;SDS011;3557;48.880;8.328;2022-11-20T18:47:52;3.60;;;2.33;;
7031;SDS011;3557;48.880;8.328;2022-11-20T18:50:21;4.60;;;3.27;;
7031;SDS011;3557;48.880;8.328;2022-11-20T18:52:48;2.87;;;1.83;;
7031;SDS011;3557;48.880;8.328;2022-11-20T18:55:18;1.70;;;1.60;;
7031;SDS011;3557;48.880;8.328;2022-11-20T18:57:50;3.70;;;1.70;;
7031;SDS011;3557;48.880;8.328;2022-11-20T19:00:19;1.70;;;1.60;;
7031;SDS011;3557;48.880;8.328;2022-11-20T19:02:47;1.70;;;1.60;;
7031;SDS011;3557;48.880;8.328;2022-11-20T19:05:17;3.23;;;1.93;;
7031;SDS011;3557;48.880;8.328;2022-11-20T19:07:46;1.90;;;1.70;;
7031;SDS011;3557;48.880;8.328;2022-11-20T19:10:15;3.10;;;1.53;;
7031;SDS011;3557;48.880;8.328;2022-11-20T19:12:44;1.50;;;1.40;;
7031;SDS011;3557;48.880;8.328;2022-11-20T19:15:12;2.88;;;1.80;;
7031;SDS011;3557;48.880;8.328;2022-11-20T19:17:39;1.73;;;1.33;;
7031;SDS011;3557;48.880;8.328;2022-11-20T19:20:06;4.30;;;1.60;;
7031;SDS011;3557;48.880;8.328;2022-11-20T19:22:34;1.63;;;1.53;;
7031;SDS011;3557;48.880;8.328;2022-11-20T19:25:03;2.60;;;1.57;;
7031;SDS011;3557;48.880;8.328;2022-11-20T19:27:31;1.87;;;1.43;;
7031;SDS011;3557;48.880;8.328;2022-11-20T19:29:58;2.97;;;1.40;;
7031;SDS011;3557;48.880;8.328;2022-11-20T19:32:27;1.47;;;1.20;;
7031;SDS011;3557;48.880;8.328;2022-11-20T19:34:54;2.20;;;1.40;;
7031;SDS011;3557;48.880;8.328;2022-11-20T19:37:21;3.27;;;1.30;;
7031;SDS011;3557;48.880;8.328;2022-11-20T19:39:50;1.70;;;1.50;;
7031;SDS011;3557;48.880;8.328;2022-11-20T19:42:18;1.85;;;1.40;;
7031;SDS011;3557;48.880;8.328;2022-11-20T19:44:45;1.53;;;1.30;;
7031;SDS011;3557;48.880;8.328;2022-11-20T19:47:12;2.60;;;1.60;;
7031;SDS011;3557;48.880;8.328;2022-11-20T19:49:41;4.00;;;1.43;;
7031;SDS011;3557;48.880;8.328;2022-11-20T19:52:08;2.35;;;1.50;;
7031;SDS011;3557;48.880;8.328;2022-11-20T19:54:35;1.50;;;1.40;;
7031;SDS011;3557;48.880;8.328;2022-11-20T19:57:03;1.83;;;1.50;;
7031;SDS011;3557;48.880;8.328;2022-11-20T19:59:32;1.50;;;1.30;;
7031;SDS011;3557;48.880;8.328;2022-11-20T20:01:59;3.00;;;1.60;;
7031;SDS011;3557;48.880;8.328;2022-11-20T20:04:27;1.40;;;1.30;;
7031;SDS011;3557;48.880;8.328;2022-11-20T20:06:54;5.07;;;1.60;;
7031;SDS011;3557;48.880;8.328;2022-11-20T20:09:21;1.80;;;1.30;;
7031;SDS011;3557;48.880;8.328;2022-11-20T20:11:51;2.07;;;1.20;;
7031;SDS011;3557;48.880;8.328;2022-11-20T20:14:18;1.50;;;1.40;;
7031;SDS011;3557;48.880;8.328;2022-11-20T20:16:47;1.80;;;1.70;;
7031;SDS011;3557;48.880;8.328;2022-11-20T20:19:14;1.23;;;1.07;;
7031;SDS011;3557;48.880;8.328;2022-11-20T20:21:41;2.70;;;1.20;;
7031;SDS011;3557;48.880;8.328;2022-11-20T20:24:09;2.50;;;1.40;;
7031;SDS011;3557;48.880;8.328;2022-11-20T20:26:37;4.33;;;1.43;;
7031;SDS011;3557;48.880;8.328;2022-11-20T20:29:04;1.43;;;1.33;;
7031;SDS011;3557;48.880;8.328;2022-11-20T20:31:32;1.97;;;1.40;;
7031;SDS011;3557;48.880;8.328;2022-11-20T20:34:01;2.03;;;1.50;;
7031;SDS011;3557;48.880;8.328;2022-11-20T20:36:29;2.30;;;1.80;;
7031;SDS011;3557;48.880;8.328;2022-11-20T20:38:57;1.20;;;1.10;;
7031;SDS011;3557;48.880;8.328;2022-11-20T20:41:26;1.93;;;1.30;;
7031;SDS011;3557;48.880;8.328;2022-11-20T20:43:54;1.53;;;1.37;;
7031;SDS011;3557;48.880;8.328;2022-11-20T20:46:38;1.63;;;1.43;;
7031;SDS011;3557;48.880;8.328;2022-11-20T20:49:07;1.80;;;1.50;;
7031;SDS011;3557;48.880;8.328;2022-11-20T20:51:35;2.87;;;1.70;;
7031;SDS011;3557;48.880;8.328;2022-11-20T20:54:02;3.73;;;1.60;;
7031;SDS011;3557;48.880;8.328;2022-11-20T20:56:30;1.97;;;1.50;;
7031;SDS011;3557;48.880;8.328;2022-11-20T20:58:57;1.10;;;1.10;;
7031;SDS011;3557;48.880;8.328;2022-11-20T21:01:25;2.53;;;1.60;;
7031;SDS011;3557;48.880;8.328;2022-11-20T21:03:53;1.90;;;1.43;;
7031;SDS011;3557;48.880;8.328;2022-11-20T21:06:22;2.63;;;1.40;;
7031;SDS011;3557;48.880;8.328;2022-11-20T21:08:49;2.77;;;1.47;;
7031;SDS011;3557;48.880;8.328;2022-11-20T21:11:18;1.97;;;1.50;;
7031;SDS011;3557;48.880;8.328;2022-11-20T21:13:46;2.67;;;1.40;;
7031;SDS011;3557;48.880;8.328;2022-11-20T21:16:14;2.83;;;1.80;;
7031;SDS011;3557;48.880;8.328;2022-11-20T21:18:44;2.73;;;1.97;;
7031;SDS011;3557;48.880;8.328;2022-11-20T21:21:12;2.73;;;1.30;;
7031;SDS011;3557;48.880;8.328;2022-11-20T21:24:00;2.57;;;1.40;;
7031;SDS011;3557;48.880;8.328;2022-11-20T21:26:27;4.33;;;1.30;;
7031;SDS011;3557;48.880;8.328;2022-11-20T21:28:55;1.87;;;1.47;;
7031;SDS011;3557;48.880;8.328;2022-11-20T21:31:23;1.40;;;1.30;;
7031;SDS011;3557;48.880;8.328;2022-11-20T21:33:53;1.30;;;1.20;;
7031;SDS011;3557;48.880;8.328;2022-11-20T21:36:22;1.60;;;1.30;;
7031;SDS011;3557;48.880;8.328;2022-11-20T21:38:50;1.40;;;1.30;;
7031;SDS011;3557;48.880;8.328;2022-11-20T21:41:20;1.43;;;1.10;;
7031;SDS011;3557;48.880;8.328;2022-11-20T21:43:49;2.47;;;1.10;;
7031;SDS011;3557;48.880;8.328;2022-11-20T21:46:16;0.90;;;0.90;;
7031;SDS011;3557;48.880;8.328;2022-11-20T21:48:44;1.20;;;1.10;;
7031;SDS011;3557;48.880;8.328;2022-11-20T21:51:12;4.03;;;1.10;;
7031;SDS011;3557;48.880;8.328;2022-11-20T21:53:41;1.10;;;1.00;;
7031;SDS011;3557;48.880;8.328;2022-11-20T21:56:10;0.77;;;0.77;;
7031;SDS011;3557;48.880;8.328;2022-11-20T21:58:41;1.57;;;1.20;;
7031;SDS011;3557;48.880;8.328;2022-11-20T22:01:10;1.33;;;1.23;;
7031;SDS011;3557;48.880;8.328;2022-11-20T22:03:38;2.27;;;1.27;;
7031;SDS011;3557;48.880;8.328;2022-11-20T22:06:06;1.13;;;1.03;;
7031;SDS011;3557;48.880;8.328;2022-11-20T22:08:35;0.80;;;0.80;;
7031;SDS011;3557;48.880;8.328;2022-11-20T22:11:04;2.33;;;1.13;;
7031;SDS011;3557;48.880;8.328;2022-11-20T22:13:34;1.33;;;1.10;;
7031;SDS011;3557;48.880;8.328;2022-11-20T22:16:20;3.33;;;1.20;;
7031;SDS011;3557;48.880;8.328;2022-11-20T22:18:48;1.07;;;1.00;;
7031;SDS011;3557;48.880;8.328;2022-11-20T22:21:18;1.47;;;1.20;;
7031;SDS011;3557;48.880;8.328;2022-11-20T22:23:47;0.93;;;0.80;;
7031;SDS011;3557;48.880;8.328;2022-11-20T22:26:15;1.57;;;0.90;;
7031;SDS011;3557;48.880;8.328;2022-11-20T22:28:45;1.37;;;1.27;;
7031;SDS011;3557;48.880;8.328;2022-11-20T22:31:13;2.63;;;1.07;;
7031;SDS011;3557;48.880;8.328;2022-11-20T22:33:43;1.57;;;1.10;;
7031;SDS011;3557;48.880;8.328;2022-11-20T22:36:10;1.30;;;1.20;;
7031;SDS011;3557;48.880;8.328;2022-11-20T22:38:39;2.30;;;0.80;;
7031;SDS011;3557;48.880;8.328;2022-11-20T22:41:07;1.77;;;1.13;;
7031;SDS011;3557;48.880;8.328;2022-11-20T22:43:36;1.57;;;1.27;;
7031;SDS011;3557;48.880;8.328;2022-11-20T22:46:04;1.17;;;1.00;;
7031;SDS011;3557;48.880;8.328;2022-11-20T22:48:34;1.90;;;1.30;;
7031;SDS011;3557;48.880;8.328;2022-11-20T22:51:05;1.03;;;0.90;;